createdAt,value
2022-10-05T00:00:58.503Z,101779.84
2022-10-05T00:03:27.376Z,101780.22
2022-10-05T00:05:53.928Z,101780.53
2022-10-05T00:08:24.202Z,101762.19
2022-10-05T00:10:51.541Z,101770.84
2022-10-05T00:13:24.802Z,101777.81
2022-10-05T00:15:57.989Z,101781.78
2022-10-05T00:18:24.385Z,101779.50
2022-10-05T00:20:50.819Z,101781.00
2022-10-05T00:23:24.688Z,101779.84
2022-10-05T00:25:51.299Z,101779.38
2022-10-05T00:28:27.625Z,101775.06
2022-10-05T00:30:59.110Z,101775.88
2022-10-05T00:33:27.423Z,101766.88
2022-10-05T00:35:55.105Z,101773.91
2022-10-05T00:38:21.571Z,101764.50
2022-10-05T00:41:06.188Z,101759.38
2022-10-05T00:44:10.261Z,101759.03
2022-10-05T00:47:10.579Z,101757.44
2022-10-05T00:49:52.254Z,101752.34
2022-10-05T00:52:39.995Z,101749.59
2022-10-05T00:55:27.790Z,101752.69
2022-10-05T00:58:33.739Z,101748.38
2022-10-05T01:01:16.683Z,101746.44
2022-10-05T01:03:55.248Z,101747.91
2022-10-05T01:06:33.548Z,101750.66
2022-10-05T01:09:21.605Z,101746.75
2022-10-05T01:12:03.671Z,101750.31
2022-10-05T01:14:53.483Z,101747.47
2022-10-05T01:17:28.819Z,101748.63
2022-10-05T01:20:22.776Z,101742.31
2022-10-05T01:23:19.469Z,101743.09
2022-10-05T01:26:00.952Z,101737.16
2022-10-05T01:28:40.981Z,101727.38
2022-10-05T01:31:12.886Z,101724.28
2022-10-05T01:33:52.238Z,101719.19
2022-10-05T01:36:33.924Z,101707.81
2022-10-05T01:39:32.789Z,101702.72
2022-10-05T01:42:04.851Z,101692.50
2022-10-05T01:44:37.214Z,101690.91
2022-10-05T01:47:23.349Z,101679.53
2022-10-05T01:50:04.626Z,101680.69
2022-10-05T01:52:51.129Z,101674.00
2022-10-05T01:55:34.154Z,101680.63
2022-10-05T01:58:00.506Z,101671.16
2022-10-05T02:00:29.938Z,101667.22
2022-10-05T02:03:14.096Z,101669.59
2022-10-05T02:05:51.683Z,101663.25
2022-10-05T02:08:25.198Z,101658.59
2022-10-05T02:11:00.381Z,101654.28
2022-10-05T02:13:40.319Z,101647.56
2022-10-05T02:16:19.547Z,101646.75
2022-10-05T02:19:20.268Z,101638.94
2022-10-05T02:21:51.851Z,101642.44
2022-10-05T02:24:31.105Z,101633.03
2022-10-05T02:26:58.762Z,101649.41
2022-10-05T02:29:30.098Z,101636.13
2022-10-05T02:32:20.307Z,101640.78
2022-10-05T02:34:46.728Z,101640.78
2022-10-05T02:37:25.204Z,101645.47
2022-10-05T02:40:06.529Z,101627.50
2022-10-05T02:42:51.147Z,101624.78
2022-10-05T02:45:26.702Z,101628.63
2022-10-05T02:47:58.277Z,101627.50
2022-10-05T02:50:45.217Z,101625.88
2022-10-05T02:53:26.592Z,101647.75
2022-10-05T02:56:22.009Z,101637.16
2022-10-05T02:59:14.636Z,101620.78
2022-10-05T03:02:00.303Z,101612.16
2022-10-05T03:04:46.385Z,101614.53
2022-10-05T03:07:22.781Z,101618.06
2022-10-05T03:10:11.907Z,101618.06
2022-10-05T03:13:10.491Z,101607.13
2022-10-05T03:15:45.872Z,101609.84
2022-10-05T03:18:29.934Z,101606.78
2022-10-05T03:21:14.015Z,101604.75
2022-10-05T03:23:51.063Z,101609.44
2022-10-05T03:26:50.209Z,101605.91
2022-10-05T03:29:25.618Z,101610.22
2022-10-05T03:31:59.999Z,101612.94
2022-10-05T03:34:56.712Z,101617.25
2022-10-05T03:37:46.064Z,101617.25
2022-10-05T03:40:40.590Z,101618.84
2022-10-05T03:43:33.485Z,101623.63
2022-10-05T03:46:02.973Z,101622.03
2022-10-05T03:48:35.170Z,101616.22
2022-10-05T03:51:18.342Z,101613.47
2022-10-05T03:53:49.714Z,101613.91
2022-10-05T03:56:41.779Z,101613.91
2022-10-05T03:59:32.578Z,101622.53
2022-10-05T04:02:21.444Z,101617.88
2022-10-05T04:05:00.988Z,101619.03
2022-10-05T04:07:46.835Z,101613.19
2022-10-05T04:10:19.086Z,101609.78
2022-10-05T04:12:55.114Z,101609.41
2022-10-05T04:15:37.629Z,101598.13
2022-10-05T04:18:13.528Z,101594.59
2022-10-05T04:20:46.677Z,101600.44
2022-10-05T04:23:28.625Z,101595.31
2022-10-05T04:26:02.248Z,101590.56
2022-10-05T04:28:46.025Z,101587.03
2022-10-05T04:31:22.680Z,101597.59
2022-10-05T04:33:57.511Z,101581.31
2022-10-05T04:36:39.042Z,101589.88
2022-10-05T04:39:17.771Z,101583.94
2022-10-05T04:42:09.034Z,101575.75
2022-10-05T04:44:59.529Z,101578.94
2022-10-05T04:47:44.356Z,101570.38
2022-10-05T04:50:19.879Z,101575.47
2022-10-05T04:53:14.727Z,101566.50
2022-10-05T04:56:14.438Z,101563.78
2022-10-05T04:59:02.929Z,101564.91
2022-10-05T05:02:00.106Z,101565.28
2022-10-05T05:05:01.885Z,101567.22
2022-10-05T05:07:53.678Z,101566.84
2022-10-05T05:10:41.097Z,101562.88
2022-10-05T05:13:46.331Z,101553.09
2022-10-05T05:16:21.998Z,101555.84
2022-10-05T05:19:06.680Z,101549.59
2022-10-05T05:21:39.647Z,101550.72
2022-10-05T05:24:40.119Z,101547.56
2022-10-05T05:27:28.419Z,101551.47
2022-10-05T05:30:18.639Z,101552.59
2022-10-05T05:33:18.098Z,101546.34
2022-10-05T05:35:50.530Z,101551.81
2022-10-05T05:38:35.466Z,101551.47
2022-10-05T05:41:09.675Z,101552.97
2022-10-05T05:44:11.082Z,101557.19
2022-10-05T05:47:02.236Z,101551.72
2022-10-05T05:50:07.287Z,101550.13
2022-10-05T05:52:49.286Z,101552.09
2022-10-05T05:55:35.510Z,101544.69
2022-10-05T05:58:16.837Z,101550.13
2022-10-05T06:00:49.206Z,101550.50
2022-10-05T06:03:39.934Z,101538.44
2022-10-05T06:06:10.606Z,101534.47
2022-10-05T06:08:43.217Z,101546.97
2022-10-05T06:11:12.802Z,101538.44
2022-10-05T06:13:42.564Z,101548.56
2022-10-05T06:16:37.087Z,101542.31
2022-10-05T06:19:10.688Z,101544.59
2022-10-05T06:22:02.160Z,101547.69
2022-10-05T06:24:38.671Z,101546.19
2022-10-05T06:27:34.253Z,101554.38
2022-10-05T06:30:09.901Z,101551.66
2022-10-05T06:33:10.519Z,101549.72
2022-10-05T06:35:54.946Z,101546.97
2022-10-05T06:38:41.480Z,101550.50
2022-10-05T06:41:23.211Z,101557.91
2022-10-05T06:43:57.155Z,101548.91
2022-10-05T06:46:30.090Z,101553.22
2022-10-05T06:49:22.645Z,101554.03
2022-10-05T06:52:15.585Z,101554.81
2022-10-05T06:54:45.863Z,101554.44
2022-10-05T06:57:32.240Z,101559.91
2022-10-05T07:00:27.467Z,101550.94
2022-10-05T07:03:04.042Z,101560.34
2022-10-05T07:05:52.519Z,101561.50
2022-10-05T07:08:30.909Z,101558.44
2022-10-05T07:11:25.900Z,101560.44
2022-10-05T07:14:04.422Z,101552.69
2022-10-05T07:16:33.915Z,101557.00
2022-10-05T07:19:22.064Z,101558.56
2022-10-05T07:24:58.144Z,101561.81
2022-10-05T07:27:27.761Z,101557.94
2022-10-05T07:30:03.308Z,101556.00
2022-10-05T07:32:44.594Z,101561.91
2022-10-05T07:36:06.185Z,101569.75
2022-10-05T07:39:11.331Z,101559.25
2022-10-05T07:41:48.182Z,101560.84
2022-10-05T07:44:36.960Z,101560.13
2022-10-05T07:47:11.932Z,101555.00
2022-10-05T07:49:38.686Z,101569.09
2022-10-05T07:52:11.499Z,101556.22
2022-10-05T07:54:52.899Z,101557.03
2022-10-05T07:57:25.342Z,101553.16
2022-10-05T08:00:10.668Z,101555.91
2022-10-05T08:02:51.124Z,101555.53
2022-10-05T08:05:37.543Z,101547.78
2022-10-05T08:08:26.180Z,101545.41
2022-10-05T08:11:12.507Z,101547.41
2022-10-05T08:14:00.314Z,101540.00
2022-10-05T08:16:30.994Z,101542.72
2022-10-05T08:19:04.406Z,101552.13
2022-10-05T08:21:38.529Z,101550.66
2022-10-05T08:24:22.903Z,101539.38
2022-10-05T08:27:05.511Z,101540.16
2022-10-05T08:29:42.146Z,101543.31
2022-10-05T08:32:18.962Z,101540.22
2022-10-05T08:34:52.299Z,101535.19
2022-10-05T08:37:21.459Z,101548.50
2022-10-05T08:40:00.379Z,101536.84
2022-10-05T08:42:48.682Z,101533.31
2022-10-05T08:45:30.114Z,101533.31
2022-10-05T08:48:17.905Z,101529.06
2022-10-05T08:51:17.999Z,101524.38
2022-10-05T08:54:14.973Z,101525.28
2022-10-05T08:56:45.859Z,101526.47
2022-10-05T08:59:18.185Z,101530.44
2022-10-05T09:01:59.862Z,101520.75
2022-10-05T09:04:47.301Z,101533.31
2022-10-05T09:07:23.653Z,101520.06
2022-10-05T09:10:02.648Z,101514.25
2022-10-05T09:12:41.266Z,101520.50
2022-10-05T09:15:40.119Z,101517.84
2022-10-05T09:18:33.291Z,101522.56
2022-10-05T09:21:05.650Z,101519.50
2022-10-05T09:23:40.347Z,101515.97
2022-10-05T09:26:42.403Z,101510.13
2022-10-05T09:29:14.446Z,101505.47
2022-10-05T09:32:11.852Z,101503.16
2022-10-05T09:35:12.850Z,101496.56
2022-10-05T09:37:59.815Z,101495.47
2022-10-05T09:40:48.258Z,101496.41
2022-10-05T09:43:40.950Z,101496.16
2022-10-05T09:46:29.027Z,101488.38
2022-10-05T09:49:03.873Z,101491.25
2022-10-05T09:51:56.699Z,101488.56
2022-10-05T09:54:34.023Z,101476.06
2022-10-05T09:57:12.746Z,101470.31
2022-10-05T09:59:48.369Z,101473.16
2022-10-05T10:02:20.729Z,101474.00
2022-10-05T10:05:20.131Z,101470.97
2022-10-05T10:08:16.917Z,101465.16
2022-10-05T10:11:13.812Z,101464.06
2022-10-05T10:13:52.112Z,101463.72
2022-10-05T10:16:49.605Z,101457.16
2022-10-05T10:19:37.576Z,101456.84
2022-10-05T10:22:19.162Z,101451.41
2022-10-05T10:25:11.179Z,101448.69
2022-10-05T10:27:40.684Z,101459.63
2022-10-05T10:30:45.697Z,101453.78
2022-10-05T10:33:39.802Z,101458.09
2022-10-05T10:36:15.311Z,101446.34
2022-10-05T10:38:58.369Z,101460.06
2022-10-05T10:41:53.371Z,101459.31
2022-10-05T10:44:25.746Z,101447.94
2022-10-05T10:47:30.039Z,101443.25
2022-10-05T10:50:28.302Z,101431.19
2022-10-05T10:53:09.918Z,101439.81
2022-10-05T10:56:12.267Z,101439.44
2022-10-05T10:59:04.533Z,101437.91
2022-10-05T11:01:36.588Z,101442.59
2022-10-05T11:04:18.289Z,101426.59
2022-10-05T11:07:06.533Z,101428.59
2022-10-05T11:10:06.356Z,101441.53
2022-10-05T11:12:45.156Z,101427.56
2022-10-05T11:15:42.588Z,101436.59
2022-10-05T11:18:17.665Z,101433.94
2022-10-05T11:21:11.848Z,101423.38
2022-10-05T11:23:50.973Z,101424.25
2022-10-05T11:26:40.973Z,101421.94
2022-10-05T11:29:25.918Z,101413.84
2022-10-05T11:32:01.434Z,101403.31
2022-10-05T11:34:27.867Z,101408.03
2022-10-05T11:37:22.056Z,101421.00
2022-10-05T11:40:24.762Z,101418.66
2022-10-05T11:43:09.732Z,101418.25
2022-10-05T11:45:45.246Z,101411.16
2022-10-05T11:48:36.058Z,101400.63
2022-10-05T11:51:12.004Z,101391.69
2022-10-05T11:54:03.306Z,101380.06
2022-10-05T11:56:35.891Z,101396.66
2022-10-05T11:59:14.929Z,101381.09
2022-10-05T12:01:52.430Z,101389.31
2022-10-05T12:04:47.941Z,101386.56
2022-10-05T12:07:35.692Z,101379.47
2022-10-05T12:10:29.025Z,101384.16
2022-10-05T12:13:01.497Z,101378.72
2022-10-05T12:15:48.109Z,101380.25
2022-10-05T12:18:17.575Z,101380.69
2022-10-05T12:20:49.847Z,101366.22
2022-10-05T12:23:33.485Z,101367.84
2022-10-05T12:26:05.696Z,101362.41
2022-10-05T12:28:43.952Z,101363.59
2022-10-05T12:31:29.046Z,101365.22
2022-10-05T12:34:32.684Z,101377.00
2022-10-05T12:37:11.491Z,101362.88
2022-10-05T12:40:08.068Z,101352.34
2022-10-05T12:43:21.782Z,101368.09
2022-10-05T12:46:17.707Z,101337.94
2022-10-05T12:49:14.872Z,101348.94
2022-10-05T12:52:02.390Z,101349.66
2022-10-05T12:54:37.723Z,101355.97
2022-10-05T12:57:27.511Z,101359.50
2022-10-05T13:00:22.719Z,101364.63
2022-10-05T13:03:17.890Z,101357.16
2022-10-05T13:05:52.217Z,101342.66
2022-10-05T13:08:46.770Z,101348.88
2022-10-05T13:11:30.297Z,101356.75
2022-10-05T13:14:14.809Z,101356.34
2022-10-05T13:16:56.920Z,101355.16
2022-10-05T13:19:39.296Z,101345.78
2022-10-05T13:22:20.782Z,101346.97
2022-10-05T13:25:02.426Z,101344.63
2022-10-05T13:27:36.854Z,101348.59
2022-10-05T13:30:15.788Z,101344.28
2022-10-05T13:32:47.935Z,101340.00
2022-10-05T13:35:35.837Z,101346.66
2022-10-05T13:38:34.428Z,101342.34
2022-10-05T13:41:17.719Z,101340.78
2022-10-05T13:43:58.866Z,101340.19
2022-10-05T13:46:33.152Z,101350.84
2022-10-05T13:49:14.362Z,101335.00
2022-10-05T13:52:08.448Z,101336.22
2022-10-05T13:54:43.052Z,101348.06
2022-10-05T13:57:44.959Z,101336.31
2022-10-05T14:00:26.506Z,101336.31
2022-10-05T14:02:56.657Z,101338.63
2022-10-05T14:05:31.436Z,101336.56
2022-10-05T14:08:16.534Z,101347.16
2022-10-05T14:10:46.104Z,101348.28
2022-10-05T14:13:12.787Z,101349.81
2022-10-05T14:15:42.217Z,101351.72
2022-10-05T14:18:26.358Z,101349.75
2022-10-05T14:21:08.077Z,101352.47
2022-10-05T14:23:35.128Z,101350.50
2022-10-05T14:26:04.436Z,101362.25
2022-10-05T14:28:34.961Z,101357.94
2022-10-05T14:31:29.542Z,101358.34
2022-10-05T14:33:56.038Z,101345.44
2022-10-05T14:36:34.981Z,101354.06
2022-10-05T14:39:04.829Z,101351.28
2022-10-05T14:41:37.227Z,101364.22
2022-10-05T14:44:09.527Z,101370.84
2022-10-05T14:46:38.540Z,101377.47
2022-10-05T14:49:12.425Z,101375.47
2022-10-05T14:51:42.111Z,101368.78
2022-10-05T14:54:33.298Z,101370.66
2022-10-05T14:57:22.470Z,101382.81
2022-10-05T15:00:19.124Z,101381.97
2022-10-05T15:03:05.312Z,101380.41
2022-10-05T15:05:39.460Z,101384.28
2022-10-05T15:08:11.974Z,101375.22
2022-10-05T15:10:52.992Z,101391.75
2022-10-05T15:13:23.910Z,101400.78
2022-10-05T15:15:56.979Z,101393.41
2022-10-05T15:18:32.061Z,101394.13
2022-10-05T15:21:17.243Z,101376.81
2022-10-05T15:23:50.076Z,101381.09
2022-10-05T15:26:22.636Z,101379.47
2022-10-05T15:29:27.902Z,101394.34
2022-10-05T15:32:07.231Z,101390.00
2022-10-05T15:34:49.075Z,101400.16
2022-10-05T15:37:25.624Z,101399.75
2022-10-05T15:39:59.642Z,101402.41
2022-10-05T15:42:32.154Z,101398.09
2022-10-05T15:45:15.878Z,101387.84
2022-10-05T15:48:01.048Z,101396.44
2022-10-05T15:50:29.677Z,101389.00
2022-10-05T15:53:13.538Z,101399.16
2022-10-05T15:56:25.048Z,101410.47
2022-10-05T15:59:02.158Z,101407.69
2022-10-05T16:01:29.192Z,101405.75
2022-10-05T16:04:14.126Z,101406.50
2022-10-05T16:07:16.345Z,101394.31
2022-10-05T16:09:53.815Z,101400.97
2022-10-05T16:12:42.635Z,101407.22
2022-10-05T16:15:26.282Z,101406.41
2022-10-05T16:18:31.251Z,101413.78
2022-10-05T16:21:27.136Z,101420.41
2022-10-05T16:24:24.477Z,101414.88
2022-10-05T16:27:04.186Z,101420.34
2022-10-05T16:29:49.710Z,101419.97
2022-10-05T16:32:22.041Z,101426.19
2022-10-05T16:35:16.727Z,101420.34
2022-10-05T16:38:05.811Z,101429.66
2022-10-05T16:40:38.641Z,101422.97
2022-10-05T16:43:30.180Z,101426.88
2022-10-05T16:46:10.326Z,101439.41
2022-10-05T16:49:26.088Z,101445.59
2022-10-05T16:52:01.020Z,101440.59
2022-10-05T16:54:37.227Z,101445.25
2022-10-05T16:57:17.725Z,101448.34
2022-10-05T17:00:22.181Z,101442.50
2022-10-05T17:03:03.800Z,101441.28
2022-10-05T17:05:58.258Z,101446.81
2022-10-05T17:08:45.462Z,101442.84
2022-10-05T17:11:33.898Z,101448.78
2022-10-05T17:14:06.390Z,101458.50
2022-10-05T17:16:56.946Z,101440.13
2022-10-05T17:19:46.611Z,101450.28
2022-10-05T17:22:26.753Z,101448.34
2022-10-05T17:25:03.574Z,101445.97
2022-10-05T17:27:51.223Z,101461.25
2022-10-05T17:30:31.646Z,101453.00
2022-10-05T17:33:04.651Z,101449.47
2022-10-05T17:35:58.207Z,101462.38
2022-10-05T17:38:30.284Z,101461.59
2022-10-05T17:41:06.385Z,101474.53
2022-10-05T17:43:33.837Z,101471.78
2022-10-05T17:46:03.027Z,101477.66
2022-10-05T17:48:49.357Z,101473.38
2022-10-05T17:51:35.966Z,101476.13
2022-10-05T17:54:41.058Z,101477.66
2022-10-05T17:57:07.565Z,101466.78
2022-10-05T17:59:44.576Z,101466.41
2022-10-05T18:02:20.033Z,101480.09
2022-10-05T18:05:15.123Z,101467.88
2022-10-05T18:08:08.132Z,101488.66
2022-10-05T18:10:37.875Z,101477.34
2022-10-05T18:13:33.588Z,101489.88
2022-10-05T18:16:00.099Z,101489.50
2022-10-05T18:18:54.600Z,101496.97
2022-10-05T18:21:30.428Z,101496.19
2022-10-05T18:23:58.716Z,101498.16
2022-10-05T18:26:43.683Z,101484.84
2022-10-05T18:29:59.676Z,101500.91
2022-10-05T18:32:50.958Z,101505.69
2022-10-05T18:35:44.548Z,101516.25
2022-10-05T18:38:43.426Z,101498.25
2022-10-05T18:41:18.555Z,101507.28
2022-10-05T18:44:08.640Z,101502.59
2022-10-05T18:46:55.431Z,101502.59
2022-10-05T18:49:43.216Z,101513.19
2022-10-05T18:52:30.944Z,101512.81
2022-10-05T18:55:18.420Z,101517.50
2022-10-05T18:58:00.787Z,101523.03
2022-10-05T19:00:42.588Z,101527.75
2022-10-05T19:03:23.567Z,101535.97
2022-10-05T19:06:22.125Z,101544.66
2022-10-05T19:09:03.065Z,101541.19
2022-10-05T19:11:55.158Z,101543.56
2022-10-05T19:14:31.377Z,101545.16
2022-10-05T19:17:16.823Z,101565.53
2022-10-05T19:19:56.085Z,101553.88
2022-10-05T19:22:42.094Z,101571.50
2022-10-05T19:25:32.430Z,101567.91
2022-10-05T19:28:14.025Z,101572.22
2022-10-05T19:30:46.602Z,101587.88
2022-10-05T19:33:31.201Z,101598.06
2022-10-05T19:36:26.479Z,101611.41
2022-10-05T19:39:08.072Z,101597.28
2022-10-05T19:42:05.151Z,101628.59
2022-10-05T19:44:46.824Z,101624.31
2022-10-05T19:47:47.286Z,101633.78
2022-10-05T19:50:22.958Z,101626.69
2022-10-05T19:53:02.452Z,101630.16
2022-10-05T19:55:35.846Z,101625.72
2022-10-05T19:58:17.574Z,101640.09
2022-10-05T20:00:47.967Z,101645.47
2022-10-05T20:03:18.908Z,101683.41
2022-10-05T20:05:45.906Z,101711.88
2022-10-05T20:08:17.426Z,101736.31
2022-10-05T20:10:44.727Z,101723.13
2022-10-05T20:13:22.383Z,101718.00
2022-10-05T20:16:35.853Z,101737.16
2022-10-05T20:19:43.740Z,101729.50
2022-10-05T20:22:35.982Z,101748.50
2022-10-05T20:25:18.358Z,101753.63
2022-10-05T20:27:55.011Z,101755.13
2022-10-05T20:30:27.515Z,101754.13
2022-10-05T20:32:58.160Z,101769.50
2022-10-05T20:35:27.895Z,101782.63
2022-10-05T20:38:00.142Z,101783.53
2022-10-05T20:40:29.139Z,101785.25
2022-10-05T20:42:56.844Z,101784.34
2022-10-05T20:45:23.316Z,101777.66
2022-10-05T20:47:50.717Z,101797.78
2022-10-05T20:50:17.750Z,101791.53
2022-10-05T20:52:44.410Z,101799.38
2022-10-05T20:55:11.850Z,101793.00
2022-10-05T20:57:42.158Z,101806.28
2022-10-05T21:00:12.708Z,101816.53
2022-10-05T21:02:39.569Z,101812.09
2022-10-05T21:05:07.580Z,101830.06
2022-10-05T21:07:35.480Z,101840.50
2022-10-05T21:10:03.760Z,101847.09
2022-10-05T21:12:30.465Z,101851.31
2022-10-05T21:14:56.882Z,101850.53
2022-10-05T21:17:23.317Z,101852.13
2022-10-05T21:19:50.230Z,101858.38
2022-10-05T21:22:16.689Z,101869.63
2022-10-05T21:24:43.179Z,101866.75
2022-10-05T21:27:10.139Z,101871.41
2022-10-05T21:29:37.177Z,101868.34
2022-10-05T21:32:08.505Z,101871.75
2022-10-05T21:34:35.197Z,101870.53
2022-10-05T21:37:01.647Z,101883.69
2022-10-05T21:39:28.061Z,101872.31
2022-10-05T21:41:54.590Z,101883.22
2022-10-05T21:44:21.007Z,101884.72
2022-10-05T21:46:48.363Z,101892.88
2022-10-05T21:49:19.539Z,101887.00
2022-10-05T21:51:47.180Z,101893.59
2022-10-05T21:54:20.320Z,101888.78
2022-10-05T21:56:51.672Z,101905.50
2022-10-05T21:59:21.538Z,101904.91
2022-10-05T22:01:47.990Z,101915.81
2022-10-05T22:04:15.101Z,101921.59
2022-10-05T22:06:41.746Z,101918.88
2022-10-05T22:09:08.183Z,101921.16
2022-10-05T22:11:34.662Z,101928.06
2022-10-05T22:14:03.806Z,101938.53
2022-10-05T22:16:33.075Z,101939.97
2022-10-05T22:19:03.868Z,101947.25
2022-10-05T22:21:32.176Z,101957.22
2022-10-05T22:24:01.618Z,101966.75
2022-10-05T22:26:28.146Z,101979.78
2022-10-05T22:28:57.597Z,101984.94
2022-10-05T22:31:24.565Z,101982.88
2022-10-05T22:33:51.978Z,101999.56
2022-10-05T22:36:19.013Z,101989.66
2022-10-05T22:38:47.446Z,102002.81
2022-10-05T22:41:15.137Z,102001.06
2022-10-05T22:43:41.597Z,102003.00
2022-10-05T22:46:12.375Z,102008.16
2022-10-05T22:48:39.987Z,102008.44
2022-10-05T22:51:08.242Z,102009.41
2022-10-05T22:53:35.130Z,102020.75
2022-10-05T22:56:10.142Z,102016.44
2022-10-05T22:58:37.046Z,102026.06
2022-10-05T23:01:05.741Z,102031.81
2022-10-05T23:03:32.890Z,102034.56
2022-10-05T23:06:03.467Z,102048.66
2022-10-05T23:08:34.258Z,102050.25
2022-10-05T23:11:09.453Z,102050.59
2022-10-05T23:13:36.237Z,102048.66
2022-10-05T23:16:14.089Z,102048.16
2022-10-05T23:18:41.542Z,102053.31
2022-10-05T23:21:09.793Z,102058.44
2022-10-05T23:23:37.484Z,102066.94
2022-10-05T23:26:05.022Z,102073.03
2022-10-05T23:28:32.217Z,102070.78
2022-10-05T23:31:04.939Z,102073.81
2022-10-05T23:33:31.457Z,102077.53
2022-10-05T23:36:03.996Z,102079.66
2022-10-05T23:38:31.005Z,102089.97
2022-10-05T23:40:58.894Z,102090.47
2022-10-05T23:43:26.798Z,102083.47
2022-10-05T23:45:54.991Z,102097.41
2022-10-05T23:48:21.853Z,102090.84
2022-10-05T23:50:49.558Z,102104.13
2022-10-05T23:53:17.227Z,102113.75
2022-10-05T23:55:43.826Z,102112.13
2022-10-05T23:58:11.210Z,102125.09
